Marana, AZ (85658)

3:44 PM MST on August 27, 2016 (GMT -0700)
Gladden Farms | | Change Station

Elev 2005 ft 32.43 °N, 111.20 °W | Updated 2 minutes ago

Clear
Clear
101.3 °F
Feels Like 97 °F
N
4.2
Wind Variable Wind from WSW

Today
High -- | Low -- °F
--% Chance of Precip.
Yesterday
High -- | Low -- °F
Precip. -- in
Pressure 29.95 in
Visibility 10.0 miles
Clouds Clear
Heat Index 97 °F
Dew Point 41 °F
Humidity 13%
Rainfall 0.00 in
Snow Depth Not available.
5:57 AM 6:55 PM
Waning Crescent, 21% visible
METAR KRYN 272152Z 27014KT 10SM CLR 34/03 A2995
Pressure 29.95 in
Visibility 10.0 miles
Clouds Clear
Heat Index 97 °F
Dew Point 41 °F
Humidity 13%
Rainfall 0.00 in
Snow Depth Not available.
5:57 AM 6:55 PM
Waning Crescent, 21% visible
METAR KRYN 272152Z 27014KT 10SM CLR 34/03 A2995

10-Day Weather Forecast

Almanac

Astronomy

Aug. 27, 2016 Rise Set
Actual Time
Civil Twilight
Nautical Twilight
Astronomical Twilight
Moon
Length of Visible Light
Length of Day
Tomorrow will be .
, % of the Moon is Illuminated

Today's Extremes

State Highs State Lows

Community

WunderPhotos

Upload Photos

1,935,458 photos uploaded!

WunderBlog® & News

Nearby

Air Quality

  Air Quality AQ Index Pollutant
Not available.

Snow Depth

Station Depth Elevation

Earthquake Activity

City Distance Mag. Time & Date
Minimum magnitude displayed is 2.5.

Coastal Water Temperatures

Place Temperature

Stations

Nearby Weather Stations

Station Location Temp. Windchill Dew Point Humidity Wind Precip. Elev Updated Type
                   

Watches & Warnings

There are currently no watches in effect.